Time,TemperatureF,DewpointF,PressureIn,WindDirection,WindDirectionDegrees,WindSpeedMPH,WindSpeedGustMPH,Humidity,HourlyPrecipIn,Conditions,Clouds,dailyrainin,SolarRadiationWatts/m^2,SoftwareType,DateUTC
2013-08-19 00:07:00,60.9,59.0,30.19,NNE,12,0.0,-999.0,92,-99.99,,,0.01,0,weatherlink.com 1.10,2013-08-19 04:07:00,
2013-08-19 00:22:00,60.8,59.0,30.20,NNE,12,0.0,-999.0,93,-99.99,,,0.01,0,weatherlink.com 1.10,2013-08-19 04:22:00,
2013-08-19 00:37:00,60.8,59.0,30.19,NNE,12,0.0,-999.0,93,-99.99,,,0.01,0,weatherlink.com 1.10,2013-08-19 04:37:00,
2013-08-19 00:52:00,60.9,59.0,30.19,NNE,12,0.0,-999.0,93,-99.99,,,0.01,0,weatherlink.com 1.10,2013-08-19 04:52:00,
2013-08-19 01:07:00,60.8,59.0,30.18,NNE,12,0.0,-999.0,93,-99.99,,,0.01,0,weatherlink.com 1.10,2013-08-19 05:07:00,
2013-08-19 01:22:00,60.5,59.0,30.19,NNE,12,0.0,-999.0,93,-99.99,,,0.01,0,weatherlink.com 1.10,2013-08-19 05:22:00,
2013-08-19 01:37:00,60.1,58.0,30.19,NNE,12,0.0,-999.0,93,-99.99,,,0.01,0,weatherlink.com 1.10,2013-08-19 05:37:00,
2013-08-19 01:52:00,59.8,58.0,30.18,NNE,12,0.0,-999.0,93,-99.99,,,0.01,0,weatherlink.com 1.10,2013-08-19 05:52:00,
2013-08-19 02:07:00,59.6,58.0,30.19,NNE,12,0.0,-999.0,93,-99.99,,,0.01,0,weatherlink.com 1.10,2013-08-19 06:07:00,
2013-08-19 02:22:00,59.4,58.0,30.18,NNE,12,0.0,-999.0,94,-99.99,,,0.01,0,weatherlink.com 1.10,2013-08-19 06:22:00,
2013-08-19 02:37:00,59.4,58.0,30.17,NNE,12,0.0,-999.0,94,-99.99,,,0.01,0,weatherlink.com 1.10,2013-08-19 06:37:00,
2013-08-19 02:52:00,59.3,58.0,30.17,NNE,12,0.0,-999.0,94,-99.99,,,0.01,0,weatherlink.com 1.10,2013-08-19 06:52:00,
2013-08-19 03:07:00,59.1,57.0,30.17,NNE,12,0.0,-999.0,94,-99.99,,,0.01,0,weatherlink.com 1.10,2013-08-19 07:07:00,
2013-08-19 03:22:00,59.0,57.0,30.17,NNE,12,0.0,-999.0,94,-99.99,,,0.01,0,weatherlink.com 1.10,2013-08-19 07:22:00,
2013-08-19 03:37:00,58.9,57.0,30.17,NNE,12,0.0,-999.0,94,-99.99,,,0.01,0,weatherlink.com 1.10,2013-08-19 07:37:00,
2013-08-19 03:52:00,58.7,57.0,30.17,NNE,12,0.0,-999.0,94,-99.99,,,0.01,0,weatherlink.com 1.10,2013-08-19 07:52:00,
2013-08-19 04:07:00,58.5,57.0,30.17,NNE,12,0.0,-999.0,94,-99.99,,,0.01,0,weatherlink.com 1.10,2013-08-19 08:07:00,
2013-08-19 04:22:00,58.3,57.0,30.17,NNE,12,0.0,-999.0,94,-99.99,,,0.00,0,weatherlink.com 1.10,2013-08-19 08:22:00,
2013-08-19 04:37:00,58.1,56.0,30.17,NNE,12,0.0,-999.0,94,-99.99,,,0.00,0,weatherlink.com 1.10,2013-08-19 08:37:00,
2013-08-19 04:52:00,58.2,57.0,30.16,NNE,12,0.0,-999.0,94,-99.99,,,0.00,0,weatherlink.com 1.10,2013-08-19 08:52:00,
2013-08-19 05:07:00,58.2,57.0,30.16,NNE,12,0.0,-999.0,95,-99.99,,,0.00,0,weatherlink.com 1.10,2013-08-19 09:07:00,
2013-08-19 05:22:00,58.3,57.0,30.17,NNE,12,0.0,-999.0,95,-99.99,,,0.00,0,weatherlink.com 1.10,2013-08-19 09:22:00,
2013-08-19 05:37:00,58.2,57.0,30.17,NNE,12,0.0,-999.0,95,-99.99,,,0.00,0,weatherlink.com 1.10,2013-08-19 09:37:00,
2013-08-19 05:52:00,58.3,57.0,30.16,NNE,12,0.0,-999.0,95,-99.99,,,0.00,0,weatherlink.com 1.10,2013-08-19 09:52:00,
2013-08-19 06:07:00,58.2,57.0,30.17,NNE,12,0.0,-999.0,95,-99.99,,,0.00,0,weatherlink.com 1.10,2013-08-19 10:07:00,
2013-08-19 06:22:00,58.1,57.0,30.17,NNE,12,0.0,-999.0,95,-99.99,,,0.00,0,weatherlink.com 1.10,2013-08-19 10:22:00,
2013-08-19 06:37:00,58.0,57.0,30.18,NNE,12,0.0,-999.0,95,-99.99,,,0.00,5,weatherlink.com 1.10,2013-08-19 10:37:00,
2013-08-19 06:52:00,58.1,57.0,30.18,NNE,12,0.0,-999.0,95,-99.99,,,0.00,25,weatherlink.com 1.10,2013-08-19 10:52:00,
2013-08-19 07:07:00,58.3,57.0,30.18,NNE,12,0.0,-999.0,95,-99.99,,,0.00,33,weatherlink.com 1.10,2013-08-19 11:07:00,
2013-08-19 07:22:00,58.6,57.0,30.18,NNE,12,0.0,-999.0,95,-99.99,,,0.00,49,weatherlink.com 1.10,2013-08-19 11:22:00,
2013-08-19 07:37:00,59.1,58.0,30.17,NNE,12,0.0,-999.0,96,-99.99,,,0.00,72,weatherlink.com 1.10,2013-08-19 11:37:00,
2013-08-19 07:52:00,59.6,59.0,30.16,NNE,12,0.0,-999.0,96,-99.99,,,0.00,77,weatherlink.com 1.10,2013-08-19 11:52:00,
2013-08-19 08:07:00,60.2,59.0,30.16,NNE,12,0.0,-999.0,96,-99.99,,,0.00,232,weatherlink.com 1.10,2013-08-19 12:07:00,
2013-08-19 08:22:00,61.4,60.0,30.16,NNE,12,0.0,-999.0,96,-99.99,,,0.00,156,weatherlink.com 1.10,2013-08-19 12:22:00,
2013-08-19 08:37:00,61.9,61.0,30.17,NNE,12,0.0,-999.0,96,-99.99,,,0.00,167,weatherlink.com 1.10,2013-08-19 12:37:00,
2013-08-19 08:52:00,63.1,62.0,30.17,NNE,12,0.0,-999.0,96,-99.99,,,0.00,237,weatherlink.com 1.10,2013-08-19 12:52:00,
2013-08-19 09:07:00,63.8,63.0,30.17,NNE,12,0.0,-999.0,96,-99.99,,,0.00,214,weatherlink.com 1.10,2013-08-19 13:07:00,
2013-08-19 09:22:00,64.7,63.0,30.18,NNE,12,0.0,-999.0,95,-99.99,,,0.00,206,weatherlink.com 1.10,2013-08-19 13:22:00,
2013-08-19 09:37:00,65.5,64.0,30.17,NNE,12,0.0,-999.0,94,-99.99,,,0.00,264,weatherlink.com 1.10,2013-08-19 13:37:00,
2013-08-19 09:52:00,66.7,64.0,30.17,NNE,12,0.0,-999.0,92,-99.99,,,0.00,332,weatherlink.com 1.10,2013-08-19 13:52:00,
2013-08-19 10:07:00,68.5,64.0,30.17,WNW,302,0.0,-999.0,86,-99.99,,,0.00,381,weatherlink.com 1.10,2013-08-19 14:07:00,
2013-08-19 10:22:00,70.1,64.0,30.17,SSW,209,4.0,-999.0,80,-99.99,,,0.00,510,weatherlink.com 1.10,2013-08-19 14:22:00,
2013-08-19 10:37:00,71.6,61.0,30.16,SSW,209,0.0,-999.0,69,-99.99,,,0.00,413,weatherlink.com 1.10,2013-08-19 14:37:00,
2013-08-19 10:52:00,72.6,62.0,30.16,SSW,209,0.0,-999.0,69,-99.99,,,0.00,385,weatherlink.com 1.10,2013-08-19 14:52:00,
2013-08-19 11:07:00,72.8,62.0,30.16,SSW,209,0.0,-999.0,68,-99.99,,,0.00,373,weatherlink.com 1.10,2013-08-19 15:07:00,
2013-08-19 11:22:00,72.9,62.0,30.15,SW,218,0.0,-999.0,69,-99.99,,,0.00,420,weatherlink.com 1.10,2013-08-19 15:22:00,
2013-08-19 11:37:00,74.0,64.0,30.15,NW,306,0.0,-999.0,71,-99.99,,,0.00,640,weatherlink.com 1.10,2013-08-19 15:37:00,
2013-08-19 11:52:00,74.1,64.0,30.14,SE,133,0.0,-999.0,70,-99.99,,,0.00,424,weatherlink.com 1.10,2013-08-19 15:52:00,
2013-08-19 12:07:00,73.9,64.0,30.14,ENE,69,0.0,-999.0,71,-99.99,,,0.00,404,weatherlink.com 1.10,2013-08-19 16:07:00,
2013-08-19 12:22:00,74.3,65.0,30.14,ENE,69,0.0,-999.0,72,-99.99,,,0.00,371,weatherlink.com 1.10,2013-08-19 16:22:00,
2013-08-19 12:37:00,74.4,65.0,30.14,ENE,69,0.0,-999.0,72,-99.99,,,0.00,367,weatherlink.com 1.10,2013-08-19 16:37:00,
2013-08-19 12:52:00,74.6,65.0,30.13,ENE,66,0.0,-999.0,72,-99.99,,,0.00,306,weatherlink.com 1.10,2013-08-19 16:52:00,
2013-08-19 13:07:00,74.1,65.0,30.13,NNE,23,0.0,-999.0,73,-99.99,,,0.00,315,weatherlink.com 1.10,2013-08-19 17:07:00,
2013-08-19 13:22:00,74.3,66.0,30.14,SW,218,2.0,-999.0,74,-99.99,,,0.00,367,weatherlink.com 1.10,2013-08-19 17:22:00,
2013-08-19 13:37:00,73.8,65.0,30.13,NNE,13,0.0,-999.0,74,-99.99,,,0.00,322,weatherlink.com 1.10,2013-08-19 17:37:00,
2013-08-19 13:52:00,73.7,65.0,30.12,North,9,0.0,-999.0,75,-99.99,,,0.00,302,weatherlink.com 1.10,2013-08-19 17:52:00,
2013-08-19 14:07:00,74.0,66.0,30.12,North,9,0.0,-999.0,75,-99.99,,,0.00,345,weatherlink.com 1.10,2013-08-19 18:07:00,
2013-08-19 14:22:00,74.8,66.0,30.12,SW,231,1.0,-999.0,73,-99.99,,,0.00,374,weatherlink.com 1.10,2013-08-19 18:22:00,
2013-08-19 14:37:00,75.3,66.0,30.12,SSW,203,0.0,-999.0,72,-99.99,,,0.00,269,weatherlink.com 1.10,2013-08-19 18:37:00,
2013-08-19 14:52:00,75.2,66.0,30.11,SSW,205,0.0,-999.0,73,-99.99,,,0.01,315,weatherlink.com 1.10,2013-08-19 18:52:00,
2013-08-19 15:07:00,75.2,66.0,30.11,SW,219,0.0,-999.0,74,-99.99,,,0.01,127,weatherlink.com 1.10,2013-08-19 19:07:00,
2013-08-19 15:22:00,74.3,67.0,30.12,SW,225,0.0,-999.0,77,-99.99,,,0.01,171,weatherlink.com 1.10,2013-08-19 19:22:00,
2013-08-19 15:37:00,74.0,67.0,30.12,SW,225,1.0,-999.0,79,-99.99,,,0.01,292,weatherlink.com 1.10,2013-08-19 19:37:00,
2013-08-19 15:52:00,73.9,67.0,30.12,West,271,0.0,-999.0,80,-99.99,,,0.01,292,weatherlink.com 1.10,2013-08-19 19:52:00,
2013-08-19 16:07:00,74.4,67.0,30.11,WNW,288,0.0,-999.0,77,-99.99,,,0.01,301,weatherlink.com 1.10,2013-08-19 20:07:00,
2013-08-19 16:22:00,75.3,67.0,30.11,WSW,256,0.0,-999.0,75,-99.99,,,0.01,295,weatherlink.com 1.10,2013-08-19 20:22:00,
2013-08-19 16:37:00,75.4,67.0,30.11,West,259,0.0,-999.0,75,-99.99,,,0.01,227,weatherlink.com 1.10,2013-08-19 20:37:00,
2013-08-19 16:52:00,75.4,67.0,30.10,West,259,0.0,-999.0,74,-99.99,,,0.01,276,weatherlink.com 1.10,2013-08-19 20:52:00,
2013-08-19 17:07:00,75.7,67.0,30.10,WSW,258,0.0,-999.0,75,-99.99,,,0.01,214,weatherlink.com 1.10,2013-08-19 21:07:00,
2013-08-19 17:22:00,75.8,68.0,30.10,West,259,2.0,-999.0,76,-99.99,,,0.01,237,weatherlink.com 1.10,2013-08-19 21:22:00,
2013-08-19 17:37:00,75.3,67.0,30.10,West,259,0.0,-999.0,76,-99.99,,,0.01,142,weatherlink.com 1.10,2013-08-19 21:37:00,
2013-08-19 17:52:00,75.3,67.0,30.10,West,259,0.0,-999.0,76,-99.99,,,0.01,148,weatherlink.com 1.10,2013-08-19 21:52:00,
2013-08-19 18:07:00,75.1,67.0,30.10,West,259,0.0,-999.0,76,-99.99,,,0.01,158,weatherlink.com 1.10,2013-08-19 22:07:00,
2013-08-19 18:22:00,74.9,67.0,30.10,WSW,258,0.0,-999.0,77,-99.99,,,0.01,105,weatherlink.com 1.10,2013-08-19 22:22:00,
2013-08-19 18:37:00,74.1,66.0,30.10,SW,214,0.0,-999.0,77,-99.99,,,0.01,93,weatherlink.com 1.10,2013-08-19 22:37:00,
2013-08-19 18:52:00,73.6,67.0,30.10,SSW,212,0.0,-999.0,79,-99.99,,,0.01,56,weatherlink.com 1.10,2013-08-19 22:52:00,
2013-08-19 19:07:00,73.2,67.0,30.10,SSW,213,0.0,-999.0,80,-99.99,,,0.01,63,weatherlink.com 1.10,2013-08-19 23:07:00,
2013-08-19 19:22:00,72.9,67.0,30.10,SSW,213,0.0,-999.0,82,-99.99,,,0.01,47,weatherlink.com 1.10,2013-08-19 23:22:00,
2013-08-19 19:37:00,72.3,67.0,30.10,SSW,213,0.0,-999.0,82,-99.99,,,0.01,12,weatherlink.com 1.10,2013-08-19 23:37:00,
2013-08-19 19:52:00,71.7,66.0,30.09,SSW,213,0.0,-999.0,83,-99.99,,,0.01,0,weatherlink.com 1.10,2013-08-19 23:52:00,
2013-08-19 20:07:00,70.6,65.0,30.09,SSW,213,0.0,-999.0,83,-99.99,,,0.01,0,weatherlink.com 1.10,2013-08-20 00:07:00,
2013-08-19 20:22:00,69.7,65.0,30.09,SSW,213,0.0,-999.0,84,-99.99,,,0.01,0,weatherlink.com 1.10,2013-08-20 00:22:00,
2013-08-19 20:37:00,68.8,64.0,30.09,SSW,213,0.0,-999.0,85,-99.99,,,0.01,0,weatherlink.com 1.10,2013-08-20 00:37:00,
2013-08-19 20:52:00,68.0,64.0,30.10,SSW,213,0.0,-999.0,87,-99.99,,,0.01,0,weatherlink.com 1.10,2013-08-20 00:52:00,
2013-08-19 21:07:00,67.2,63.0,30.10,SSW,213,0.0,-999.0,87,-99.99,,,0.01,0,weatherlink.com 1.10,2013-08-20 01:07:00,
2013-08-19 21:22:00,66.4,63.0,30.11,SSW,213,0.0,-999.0,88,-99.99,,,0.01,0,weatherlink.com 1.10,2013-08-20 01:22:00,
2013-08-19 21:37:00,65.9,63.0,30.11,SSW,213,0.0,-999.0,89,-99.99,,,0.01,0,weatherlink.com 1.10,2013-08-20 01:37:00,
2013-08-19 21:52:00,65.3,62.0,30.12,SSW,213,0.0,-999.0,89,-99.99,,,0.01,0,weatherlink.com 1.10,2013-08-20 01:52:00,
2013-08-19 22:07:00,64.8,62.0,30.12,SSW,213,0.0,-999.0,89,-99.99,,,0.01,0,weatherlink.com 1.10,2013-08-20 02:07:00,
2013-08-19 22:22:00,64.4,62.0,30.12,SSW,213,0.0,-999.0,90,-99.99,,,0.01,0,weatherlink.com 1.10,2013-08-20 02:22:00,
2013-08-19 22:37:00,64.1,61.0,30.11,SSW,213,0.0,-999.0,90,-99.99,,,0.01,0,weatherlink.com 1.10,2013-08-20 02:37:00,
2013-08-19 22:52:00,63.7,61.0,30.12,SSW,213,0.0,-999.0,91,-99.99,,,0.01,0,weatherlink.com 1.10,2013-08-20 02:52:00,
2013-08-19 23:07:00,63.4,61.0,30.12,SSW,213,0.0,-999.0,91,-99.99,,,0.01,0,weatherlink.com 1.10,2013-08-20 03:07:00,
2013-08-19 23:22:00,63.0,60.0,30.12,SSW,213,0.0,-999.0,91,-99.99,,,0.01,0,weatherlink.com 1.10,2013-08-20 03:22:00,
2013-08-19 23:37:00,62.6,60.0,30.12,SSW,213,0.0,-999.0,92,-99.99,,,0.01,0,weatherlink.com 1.10,2013-08-20 03:37:00,
2013-08-19 23:52:00,62.4,60.0,30.12,SSW,213,0.0,-999.0,92,-99.99,,,0.01,0,weatherlink.com 1.10,2013-08-20 03:52:00,